createdAt,value
2022-08-25T00:02:08.139Z,100937.23
2022-08-25T00:04:37.608Z,100941.30
2022-08-25T00:07:07.019Z,100942.72
2022-08-25T00:09:34.936Z,100945.11
2022-08-25T00:12:04.920Z,100946.30
2022-08-25T00:14:36.958Z,100947.60
2022-08-25T00:17:05.788Z,100947.48
2022-08-25T00:19:37.368Z,100950.64
2022-08-25T00:22:07.188Z,100950.01
2022-08-25T00:24:34.590Z,100946.81
2022-08-25T00:27:01.968Z,100945.81
2022-08-25T00:29:31.002Z,100946.77
2022-08-25T00:31:59.179Z,100947.05
2022-08-25T00:34:33.523Z,100943.63
2022-08-25T00:37:03.691Z,100947.27
2022-08-25T00:39:30.842Z,100943.65
2022-08-25T00:41:59.110Z,100943.39
2022-08-25T00:44:29.122Z,100943.60
2022-08-25T00:47:00.562Z,100938.90
2022-08-25T00:49:46.919Z,100940.69
2022-08-25T00:52:25.295Z,100938.33
2022-08-25T00:55:07.817Z,100933.97
2022-08-25T00:57:42.891Z,100932.07
2022-08-25T01:00:40.902Z,100934.66
2022-08-25T01:03:08.594Z,100935.33
2022-08-25T01:05:36.474Z,100933.86
2022-08-25T01:08:06.715Z,100935.77
2022-08-25T01:10:40.815Z,100934.17
2022-08-25T01:13:26.271Z,100934.75
2022-08-25T01:15:56.211Z,100930.84
2022-08-25T01:18:24.198Z,100926.22
2022-08-25T01:20:57.724Z,100924.58
2022-08-25T01:23:26.038Z,100919.56
2022-08-25T01:26:19.335Z,100919.89
2022-08-25T01:29:08.595Z,100916.09
2022-08-25T01:31:38.474Z,100911.09
2022-08-25T01:34:08.021Z,100912.03
2022-08-25T01:36:35.515Z,100916.13
2022-08-25T01:39:04.790Z,100914.35
2022-08-25T01:41:48.351Z,100916.75
2022-08-25T01:44:18.734Z,100911.51
2022-08-25T01:46:45.988Z,100911.75
2022-08-25T01:49:13.110Z,100911.38
2022-08-25T01:51:55.587Z,100909.60
2022-08-25T01:54:22.923Z,100914.88
2022-08-25T01:56:50.058Z,100915.79
2022-08-25T01:59:23.794Z,100918.08
2022-08-25T02:02:00.021Z,100916.65
2022-08-25T02:04:31.718Z,100914.13
2022-08-25T02:07:01.822Z,100917.16
2022-08-25T02:09:29.341Z,100919.16
2022-08-25T02:11:56.779Z,100918.05
2022-08-25T02:14:24.393Z,100913.77
2022-08-25T02:16:54.057Z,100912.86
2022-08-25T02:19:24.090Z,100913.52
2022-08-25T02:21:51.870Z,100910.55
2022-08-25T02:24:19.180Z,100907.69
2022-08-25T02:26:46.722Z,100907.98
2022-08-25T02:29:16.417Z,100909.42
2022-08-25T02:31:44.568Z,100911.35
2022-08-25T02:34:11.707Z,100916.52
2022-08-25T02:36:39.628Z,100916.30
2022-08-25T02:39:08.746Z,100916.44
2022-08-25T02:41:36.676Z,100916.16
2022-08-25T02:44:06.192Z,100913.98
2022-08-25T02:46:35.080Z,100919.14
2022-08-25T02:49:03.201Z,100922.23
2022-08-25T02:51:31.579Z,100924.16
2022-08-25T02:54:01.692Z,100924.73
2022-08-25T02:56:30.685Z,100928.97
2022-08-25T02:58:59.509Z,100931.41
2022-08-25T03:01:28.640Z,100934.48
2022-08-25T03:03:57.327Z,100934.48
2022-08-25T03:06:24.936Z,100937.55
2022-08-25T03:08:52.943Z,100939.69
2022-08-25T03:11:21.641Z,100941.09
2022-08-25T03:13:50.486Z,100942.05
2022-08-25T03:16:18.835Z,100945.02
2022-08-25T03:18:46.945Z,100946.48
2022-08-25T03:21:16.268Z,100949.11
2022-08-25T03:23:44.922Z,100947.58
2022-08-25T03:26:31.703Z,100956.10
2022-08-25T03:29:04.632Z,100958.73
2022-08-25T03:31:33.958Z,100958.36
2022-08-25T03:34:01.679Z,100964.59
2022-08-25T03:36:29.587Z,100965.42
2022-08-25T03:38:57.317Z,100965.20
2022-08-25T03:41:32.026Z,100962.16
2022-08-25T03:44:00.630Z,100964.44
2022-08-25T03:46:34.469Z,100966.35
2022-08-25T03:49:04.496Z,100966.68
2022-08-25T03:51:36.251Z,100970.25
2022-08-25T03:54:05.833Z,100975.48
2022-08-25T03:56:33.559Z,100975.05
2022-08-25T03:59:00.844Z,100982.09
2022-08-25T04:01:28.290Z,100980.02
2022-08-25T04:03:56.076Z,100977.73
2022-08-25T04:06:23.274Z,100977.96
2022-08-25T04:08:52.153Z,100979.41
2022-08-25T04:11:22.379Z,100979.04
2022-08-25T04:13:51.504Z,100976.63
2022-08-25T04:16:23.756Z,100978.10
2022-08-25T04:18:51.965Z,100974.42
2022-08-25T04:21:19.819Z,100975.15
2022-08-25T04:23:52.446Z,100975.45
2022-08-25T04:26:43.677Z,100979.46
2022-08-25T04:29:13.385Z,100971.88
2022-08-25T04:31:43.722Z,100972.84
2022-08-25T04:34:14.789Z,100973.71
2022-08-25T04:37:01.350Z,100971.10
2022-08-25T04:39:30.103Z,100969.73
2022-08-25T04:42:04.220Z,100971.54
2022-08-25T04:44:32.227Z,100970.26
2022-08-25T04:47:03.835Z,100971.13
2022-08-25T04:49:31.442Z,100971.79
2022-08-25T04:51:59.692Z,100972.13
2022-08-25T04:54:27.747Z,100973.44
2022-08-25T04:56:58.723Z,100968.61
2022-08-25T04:59:29.545Z,100966.05
2022-08-25T05:02:02.840Z,100966.74
2022-08-25T05:04:32.241Z,100969.24
2022-08-25T05:07:01.408Z,100971.39
2022-08-25T05:09:32.428Z,100971.28
2022-08-25T05:12:07.379Z,100964.23
2022-08-25T05:14:34.752Z,100965.17
2022-08-25T05:17:02.416Z,100961.64
2022-08-25T05:19:30.048Z,100964.04
2022-08-25T05:21:57.737Z,100968.27
2022-08-25T05:24:27.433Z,100963.06
2022-08-25T05:26:55.403Z,100963.01
2022-08-25T05:29:23.071Z,100965.67
2022-08-25T05:31:51.050Z,100958.45
2022-08-25T05:34:19.804Z,100958.10
2022-08-25T05:36:48.488Z,100959.44
2022-08-25T05:39:15.751Z,100959.08
2022-08-25T05:41:42.924Z,100956.00
2022-08-25T05:44:12.002Z,100959.61
2022-08-25T05:46:39.306Z,100955.88
2022-08-25T05:49:06.462Z,100956.55
2022-08-25T05:51:33.626Z,100956.29
2022-08-25T05:54:00.815Z,100953.55
2022-08-25T05:56:28.031Z,100952.95
2022-08-25T05:58:55.228Z,100953.77
2022-08-25T06:01:45.385Z,100951.15
2022-08-25T06:04:21.995Z,100950.52
2022-08-25T06:06:52.988Z,100949.63
2022-08-25T06:09:22.098Z,100952.37
2022-08-25T06:11:54.173Z,100949.02
2022-08-25T06:14:23.559Z,100946.19
2022-08-25T06:16:52.543Z,100945.95
2022-08-25T06:19:20.747Z,100943.83
2022-08-25T06:21:49.355Z,100953.59
2022-08-25T06:24:16.549Z,100949.77
2022-08-25T06:26:43.749Z,100948.88
2022-08-25T06:29:13.573Z,100947.20
2022-08-25T06:31:42.135Z,100944.69
2022-08-25T06:34:11.005Z,100945.31
2022-08-25T06:36:39.275Z,100950.80
2022-08-25T06:39:07.340Z,100943.46
2022-08-25T06:41:37.432Z,100944.39
2022-08-25T06:44:05.968Z,100943.89
2022-08-25T06:46:36.182Z,100950.50
2022-08-25T06:49:06.218Z,100946.17
2022-08-25T06:51:35.428Z,100946.06
2022-08-25T06:54:05.831Z,100944.16
2022-08-25T06:56:34.144Z,100947.67
2022-08-25T06:59:04.016Z,100947.59
2022-08-25T07:01:32.346Z,100948.19
2022-08-25T07:04:03.096Z,100949.52
2022-08-25T07:06:37.247Z,100947.20
2022-08-25T07:09:06.792Z,100948.84
2022-08-25T07:11:34.147Z,100947.14
2022-08-25T07:14:03.742Z,100944.23
2022-08-25T07:16:32.937Z,100943.48
2022-08-25T07:19:01.574Z,100941.63
2022-08-25T07:21:35.657Z,100939.94
2022-08-25T07:24:11.427Z,100934.30
2022-08-25T07:26:41.874Z,100937.04
2022-08-25T07:29:31.837Z,100937.73
2022-08-25T07:32:01.813Z,100939.48
2022-08-25T07:34:52.233Z,100926.69
2022-08-25T07:40:21.721Z,100921.53
2022-08-25T07:42:51.894Z,100914.79
2022-08-25T07:45:21.451Z,100917.03
2022-08-25T07:47:51.698Z,100913.95
2022-08-25T07:50:19.724Z,100906.94
2022-08-25T07:52:49.757Z,100902.35
2022-08-25T07:55:23.126Z,100889.09
2022-08-25T07:57:55.376Z,100889.00
2022-08-25T08:00:27.002Z,100886.64
2022-08-25T08:02:54.953Z,100884.83
2022-08-25T08:05:24.053Z,100884.61
2022-08-25T08:07:54.023Z,100876.05
2022-08-25T08:10:48.094Z,100880.09
2022-08-25T08:13:10.463Z,100883.38
2022-08-25T08:15:41.407Z,100878.15
2022-08-25T08:18:10.316Z,100877.23
2022-08-25T08:20:42.596Z,100877.66
2022-08-25T08:23:11.606Z,100878.16
2022-08-25T08:25:38.883Z,100873.73
2022-08-25T08:28:07.135Z,100876.31
2022-08-25T08:30:36.077Z,100870.50
2022-08-25T08:33:10.189Z,100869.20
2022-08-25T08:35:41.245Z,100866.84
2022-08-25T08:38:16.079Z,100865.06
2022-08-25T08:41:21.544Z,100862.58
2022-08-25T08:44:02.940Z,100860.34
2022-08-25T08:46:52.512Z,100862.01
2022-08-25T08:49:40.495Z,100854.00
2022-08-25T08:52:14.563Z,100854.39
2022-08-25T08:54:43.040Z,100850.55
2022-08-25T08:57:19.619Z,100855.08
2022-08-25T08:59:59.628Z,100850.89
2022-08-25T09:02:51.768Z,100850.70
2022-08-25T09:05:23.879Z,100845.46
2022-08-25T09:08:13.198Z,100836.52
2022-08-25T09:11:12.091Z,100831.57
2022-08-25T09:14:30.601Z,100825.52
2022-08-25T09:17:06.557Z,100818.73
2022-08-25T09:20:18.571Z,100819.15
2022-08-25T09:23:04.937Z,100809.39
2022-08-25T09:26:00.199Z,100803.79
2022-08-25T09:28:54.758Z,100802.98
2022-08-25T09:31:31.368Z,100800.25
2022-08-25T09:34:03.597Z,100799.55
2022-08-25T09:36:37.442Z,100795.23
2022-08-25T09:39:07.677Z,100786.35
2022-08-25T09:41:45.880Z,100783.00
2022-08-25T09:44:35.792Z,100779.55
2022-08-25T09:47:18.310Z,100777.23
2022-08-25T09:49:59.592Z,100773.95
2022-08-25T09:52:36.950Z,100774.23
2022-08-25T09:55:15.975Z,100762.69
2022-08-25T09:57:43.657Z,100756.77
2022-08-25T10:00:25.557Z,100756.64
2022-08-25T10:03:06.623Z,100755.52
2022-08-25T10:05:58.246Z,100746.66
2022-08-25T10:08:35.359Z,100745.47
2022-08-25T10:11:08.873Z,100740.22
2022-08-25T10:13:47.015Z,100734.95
2022-08-25T10:16:36.267Z,100725.82
2022-08-25T10:19:09.385Z,100720.80
2022-08-25T10:21:40.403Z,100718.66
2022-08-25T10:24:10.917Z,100714.84
2022-08-25T10:27:21.296Z,100710.02
2022-08-25T10:30:27.711Z,100705.69
2022-08-25T10:33:32.324Z,100708.09
2022-08-25T10:36:28.290Z,100713.65
2022-08-25T10:39:01.872Z,100706.88
2022-08-25T10:41:47.047Z,100702.43
2022-08-25T10:45:19.517Z,100701.65
2022-08-25T10:48:49.226Z,100701.38
2022-08-25T10:52:02.803Z,100705.09
2022-08-25T10:55:06.545Z,100701.17
2022-08-25T10:57:57.745Z,100698.73
2022-08-25T11:00:37.779Z,100694.20
2022-08-25T11:03:44.196Z,100694.33
2022-08-25T11:06:29.501Z,100689.44
2022-08-25T11:09:03.929Z,100686.46
2022-08-25T11:11:40.266Z,100686.31
2022-08-25T11:14:23.098Z,100684.24
2022-08-25T11:17:11.953Z,100681.14
2022-08-25T11:19:47.595Z,100677.48
2022-08-25T11:22:43.545Z,100667.81
2022-08-25T11:25:21.599Z,100665.58
2022-08-25T11:27:57.200Z,100658.77
2022-08-25T11:30:25.920Z,100657.02
2022-08-25T11:32:55.266Z,100652.86
2022-08-25T11:35:56.574Z,100648.27
2022-08-25T11:38:59.760Z,100644.43
2022-08-25T11:41:58.881Z,100636.28
2022-08-25T11:45:02.207Z,100634.87
2022-08-25T11:47:54.177Z,100627.55
2022-08-25T11:50:24.052Z,100623.70
2022-08-25T11:53:35.853Z,100623.58
2022-08-25T11:56:34.691Z,100616.38
2022-08-25T11:59:03.880Z,100613.20
2022-08-25T12:01:42.473Z,100608.33
2022-08-25T12:04:31.044Z,100609.73
2022-08-25T12:07:10.021Z,100611.11
2022-08-25T12:09:49.648Z,100610.23
2022-08-25T12:12:38.004Z,100609.40
2022-08-25T12:15:42.100Z,100609.29
2022-08-25T12:18:22.356Z,100605.84
2022-08-25T12:20:55.854Z,100604.69
2022-08-25T12:24:05.413Z,100608.17
2022-08-25T12:26:59.040Z,100608.02
2022-08-25T12:29:52.618Z,100601.91
2022-08-25T12:33:03.952Z,100605.07
2022-08-25T12:36:04.954Z,100602.13
2022-08-25T12:38:52.076Z,100600.55
2022-08-25T12:41:31.093Z,100602.74
2022-08-25T12:44:43.618Z,100602.27
2022-08-25T12:47:23.693Z,100601.08
2022-08-25T12:49:51.030Z,100599.23
2022-08-25T12:52:27.870Z,100595.69
2022-08-25T12:54:58.108Z,100593.15
2022-08-25T12:57:50.119Z,100591.94
2022-08-25T13:00:56.852Z,100586.80
2022-08-25T13:04:11.521Z,100591.35
2022-08-25T13:07:15.861Z,100589.63
2022-08-25T13:10:01.438Z,100591.72
2022-08-25T13:12:45.639Z,100589.41
2022-08-25T13:15:37.317Z,100591.96
2022-08-25T13:18:26.649Z,100593.98
2022-08-25T13:21:18.365Z,100592.30
2022-08-25T13:23:50.543Z,100593.73
2022-08-25T13:26:37.214Z,100589.86
2022-08-25T13:29:09.173Z,100586.15
2022-08-25T13:31:49.250Z,100588.73
2022-08-25T13:34:20.996Z,100585.19
2022-08-25T13:37:07.829Z,100586.65
2022-08-25T13:39:56.129Z,100586.75
2022-08-25T13:42:28.734Z,100583.69
2022-08-25T13:44:56.374Z,100585.42
2022-08-25T13:47:44.978Z,100583.30
2022-08-25T13:50:26.535Z,100585.23
2022-08-25T13:53:05.888Z,100581.68
2022-08-25T13:55:56.957Z,100576.06
2022-08-25T13:58:44.860Z,100573.72
2022-08-25T14:01:48.783Z,100574.60
2022-08-25T14:04:20.294Z,100573.84
2022-08-25T14:07:04.496Z,100571.41
2022-08-25T14:09:49.297Z,100569.05
2022-08-25T14:12:39.427Z,100568.02
2022-08-25T14:15:21.300Z,100569.10
2022-08-25T14:18:29.043Z,100570.73
2022-08-25T14:20:58.005Z,100568.84
2022-08-25T14:23:30.310Z,100567.64
2022-08-25T14:25:58.337Z,100563.95
2022-08-25T14:28:29.675Z,100560.65
2022-08-25T14:31:05.179Z,100558.43
2022-08-25T14:33:39.753Z,100558.31
2022-08-25T14:36:07.576Z,100561.04
2022-08-25T14:38:38.382Z,100563.99
2022-08-25T14:43:38.746Z,100559.20
2022-08-25T14:46:24.259Z,100558.83
2022-08-25T14:48:56.248Z,100557.19
2022-08-25T14:51:27.308Z,100556.69
2022-08-25T14:53:59.073Z,100558.95
2022-08-25T14:56:29.213Z,100559.41
2022-08-25T14:58:56.967Z,100555.86
2022-08-25T15:01:30.081Z,100562.73
2022-08-25T15:04:09.883Z,100562.05
2022-08-25T15:06:42.169Z,100563.69
2022-08-25T15:09:15.764Z,100566.77
2022-08-25T15:11:51.921Z,100563.11
2022-08-25T15:14:28.453Z,100561.18
2022-08-25T15:17:01.676Z,100558.36
2022-08-25T15:19:29.142Z,100559.81
2022-08-25T15:21:58.137Z,100562.09
2022-08-25T15:24:28.154Z,100562.76
2022-08-25T15:27:01.557Z,100565.26
2022-08-25T15:29:34.250Z,100565.42
2022-08-25T15:32:06.462Z,100564.20
2022-08-25T15:34:35.447Z,100565.35
2022-08-25T15:37:14.457Z,100563.25
2022-08-25T15:39:44.923Z,100560.92
2022-08-25T15:42:13.449Z,100562.60
2022-08-25T15:44:41.108Z,100562.00
2022-08-25T15:47:12.512Z,100558.11
2022-08-25T15:49:40.073Z,100560.93
2022-08-25T15:52:07.143Z,100554.92
2022-08-25T15:54:34.314Z,100557.33
2022-08-25T15:57:03.710Z,100554.61
2022-08-25T15:59:36.052Z,100556.13
2022-08-25T16:02:14.851Z,100555.42
2022-08-25T16:04:42.720Z,100556.75
2022-08-25T16:07:10.232Z,100555.80
2022-08-25T16:09:41.358Z,100550.16
2022-08-25T16:12:08.981Z,100548.92
2022-08-25T16:14:37.519Z,100543.77
2022-08-25T16:17:05.962Z,100548.00
2022-08-25T16:19:33.066Z,100546.15
2022-08-25T16:22:00.879Z,100550.34
2022-08-25T16:24:28.026Z,100551.98
2022-08-25T16:26:59.724Z,100551.27
2022-08-25T16:29:36.075Z,100549.47
2022-08-25T16:32:06.520Z,100557.25
2022-08-25T16:34:34.835Z,100559.11
2022-08-25T16:37:02.350Z,100563.69
2022-08-25T16:39:29.581Z,100566.55
2022-08-25T16:41:56.723Z,100566.61
2022-08-25T16:44:23.953Z,100564.56
2022-08-25T16:46:57.156Z,100561.10
2022-08-25T16:49:25.406Z,100561.06
2022-08-25T16:51:57.603Z,100563.80
2022-08-25T16:54:44.943Z,100563.84
2022-08-25T16:57:12.621Z,100563.90
2022-08-25T16:59:40.011Z,100565.30
2022-08-25T17:02:07.866Z,100566.11
2022-08-25T17:04:35.070Z,100567.63
2022-08-25T17:07:02.522Z,100564.45
2022-08-25T17:09:30.347Z,100563.70
2022-08-25T17:11:57.698Z,100565.12
2022-08-25T17:14:24.916Z,100565.77
2022-08-25T17:16:54.642Z,100570.15
2022-08-25T17:19:25.266Z,100575.30
2022-08-25T17:21:53.964Z,100573.81
2022-08-25T17:24:21.723Z,100576.24
2022-08-25T17:26:57.003Z,100580.63
2022-08-25T17:29:24.689Z,100583.04
2022-08-25T17:31:51.725Z,100588.44
2022-08-25T17:34:21.356Z,100590.25
2022-08-25T17:36:52.869Z,100591.57
2022-08-25T17:39:22.244Z,100588.14
2022-08-25T17:41:51.685Z,100589.91
2022-08-25T17:44:19.487Z,100590.11
2022-08-25T17:46:47.630Z,100594.05
2022-08-25T17:49:19.048Z,100598.64
2022-08-25T17:51:46.240Z,100598.36
2022-08-25T17:54:14.830Z,100597.85
2022-08-25T17:56:42.577Z,100600.08
2022-08-25T17:59:12.872Z,100597.53
2022-08-25T18:01:42.227Z,100598.09
2022-08-25T18:04:17.514Z,100598.50
2022-08-25T18:06:51.203Z,100602.04
2022-08-25T18:09:18.837Z,100601.60
2022-08-25T18:11:47.127Z,100599.85
2022-08-25T18:14:16.027Z,100601.68
2022-08-25T18:16:43.882Z,100601.75
2022-08-25T18:19:13.019Z,100599.76
2022-08-25T18:21:43.652Z,100602.49
2022-08-25T18:24:13.787Z,100603.77
2022-08-25T18:26:41.838Z,100611.52
2022-08-25T18:29:12.550Z,100613.80
2022-08-25T18:31:41.745Z,100619.17
2022-08-25T18:34:10.890Z,100618.37
2022-08-25T18:36:39.094Z,100620.55
2022-08-25T18:39:25.601Z,100620.49
2022-08-25T18:41:54.551Z,100623.75
2022-08-25T18:44:27.579Z,100621.48
2022-08-25T18:46:55.152Z,100621.20
2022-08-25T18:49:22.483Z,100621.06
2022-08-25T18:51:54.196Z,100619.80
2022-08-25T18:54:23.574Z,100616.49
2022-08-25T18:56:54.100Z,100616.86
2022-08-25T18:59:23.505Z,100615.45
2022-08-25T19:01:54.724Z,100614.58
2022-08-25T19:04:28.544Z,100614.73
2022-08-25T19:07:00.620Z,100614.44
2022-08-25T19:09:28.243Z,100615.16
2022-08-25T19:11:56.498Z,100617.13
2022-08-25T19:14:23.859Z,100618.52
2022-08-25T19:16:54.015Z,100621.15
2022-08-25T19:19:21.155Z,100626.80
2022-08-25T19:21:53.870Z,100621.83
2022-08-25T19:24:21.191Z,100633.64
2022-08-25T19:26:51.447Z,100633.64
2022-08-25T19:29:22.826Z,100636.98
2022-08-25T19:31:51.172Z,100633.86
2022-08-25T19:34:30.508Z,100635.37
2022-08-25T19:37:01.939Z,100635.20
2022-08-25T19:39:34.670Z,100630.53
2022-08-25T19:42:03.243Z,100628.34
2022-08-25T19:44:31.627Z,100626.39
2022-08-25T19:46:59.399Z,100627.35
2022-08-25T19:49:34.888Z,100628.18
2022-08-25T19:52:10.470Z,100627.14
2022-08-25T19:54:44.347Z,100631.17
2022-08-25T19:57:28.294Z,100630.35
2022-08-25T20:00:23.127Z,100630.68
2022-08-25T20:02:50.649Z,100633.35
2022-08-25T20:05:23.560Z,100630.33
2022-08-25T20:07:53.498Z,100634.72
2022-08-25T20:10:23.063Z,100633.36
2022-08-25T20:12:53.085Z,100630.79
2022-08-25T20:15:24.462Z,100631.66
2022-08-25T20:17:56.572Z,100629.95
2022-08-25T20:20:25.287Z,100628.07
2022-08-25T20:23:22.807Z,100627.16
2022-08-25T20:25:58.044Z,100622.25
2022-08-25T20:28:27.928Z,100622.14
2022-08-25T20:30:56.748Z,100624.23
2022-08-25T20:33:29.728Z,100623.11
2022-08-25T20:36:05.451Z,100624.92
2022-08-25T20:38:37.440Z,100622.41
2022-08-25T20:41:09.181Z,100621.35
2022-08-25T20:43:40.853Z,100616.02
2022-08-25T20:46:09.093Z,100621.17
2022-08-25T20:48:38.029Z,100621.73
2022-08-25T20:51:07.513Z,100625.11
2022-08-25T20:53:40.865Z,100620.48
2022-08-25T20:56:14.642Z,100623.16
2022-08-25T20:58:42.482Z,100624.45
2022-08-25T21:01:23.622Z,100622.08
2022-08-25T21:03:50.720Z,100621.23
2022-08-25T21:06:17.849Z,100627.92
2022-08-25T21:08:46.797Z,100622.11
2022-08-25T21:11:18.096Z,100619.95
2022-08-25T21:13:46.266Z,100620.82
2022-08-25T21:16:17.362Z,100626.45
2022-08-25T21:18:48.179Z,100624.83
2022-08-25T21:21:16.874Z,100626.95
2022-08-25T21:23:50.614Z,100626.16
2022-08-25T21:26:26.147Z,100624.16
2022-08-25T21:28:56.085Z,100621.49
2022-08-25T21:31:23.185Z,100626.13
2022-08-25T21:33:54.195Z,100626.05
2022-08-25T21:36:24.005Z,100626.53
2022-08-25T21:38:53.595Z,100626.82
2022-08-25T21:41:25.037Z,100625.73
2022-08-25T21:43:52.971Z,100627.13
2022-08-25T21:46:24.071Z,100630.01
2022-08-25T21:48:52.608Z,100633.36
2022-08-25T21:51:44.276Z,100633.53
2022-08-25T21:54:16.032Z,100635.63
2022-08-25T21:56:54.564Z,100635.67
2022-08-25T21:59:26.015Z,100634.60
2022-08-25T22:02:03.340Z,100636.10
2022-08-25T22:04:32.154Z,100633.49
2022-08-25T22:07:00.019Z,100631.11
2022-08-25T22:09:30.034Z,100626.68
2022-08-25T22:11:57.203Z,100626.95
2022-08-25T22:14:26.815Z,100621.00
2022-08-25T22:16:56.423Z,100621.12
2022-08-25T22:19:24.662Z,100621.81
2022-08-25T22:21:52.930Z,100624.02
2022-08-25T22:24:20.796Z,100623.56
2022-08-25T22:26:48.601Z,100620.08
2022-08-25T22:29:24.701Z,100618.13
2022-08-25T22:31:59.603Z,100613.52
2022-08-25T22:34:34.695Z,100606.86
2022-08-25T22:37:07.381Z,100607.08
2022-08-25T22:39:35.482Z,100606.61
2022-08-25T22:42:03.573Z,100607.66
2022-08-25T22:44:30.761Z,100602.61
2022-08-25T22:46:57.850Z,100601.27
2022-08-25T22:49:28.716Z,100601.02
2022-08-25T22:51:56.136Z,100602.28
2022-08-25T22:54:23.925Z,100599.48
2022-08-25T22:56:53.026Z,100599.45
2022-08-25T22:59:20.218Z,100596.72
2022-08-25T23:01:52.043Z,100588.91
2022-08-25T23:04:19.594Z,100593.36
2022-08-25T23:06:47.258Z,100591.51
2022-08-25T23:09:14.481Z,100585.39
2022-08-25T23:11:43.996Z,100584.30
2022-08-25T23:14:11.619Z,100584.92
2022-08-25T23:16:41.955Z,100581.62
2022-08-25T23:19:14.330Z,100582.92
2022-08-25T23:22:02.171Z,100580.16
2022-08-25T23:24:30.921Z,100581.91
2022-08-25T23:27:04.128Z,100579.70
2022-08-25T23:29:35.133Z,100574.64
2022-08-25T23:32:03.988Z,100574.65
2022-08-25T23:34:31.063Z,100573.56
2022-08-25T23:37:01.242Z,100574.79
2022-08-25T23:39:28.439Z,100572.02
2022-08-25T23:41:55.466Z,100572.66
2022-08-25T23:44:24.804Z,100573.77
2022-08-25T23:46:52.831Z,100569.56
2022-08-25T23:49:22.974Z,100574.49
2022-08-25T23:51:52.757Z,100576.42
2022-08-25T23:54:20.990Z,100579.21
2022-08-25T23:56:52.254Z,100579.36
2022-08-25T23:59:24.380Z,100578.66
